createdAt,value
2023-03-02T00:00:03.470Z,19.20
2023-03-02T00:00:14.235Z,19.70
2023-03-02T00:00:25.297Z,20.10
2023-03-02T00:00:36.269Z,19.90
2023-03-02T00:00:47.042Z,20.10
2023-03-02T00:00:58.070Z,19.40
2023-03-02T00:01:09.043Z,19.70
2023-03-02T00:01:19.809Z,19.70
2023-03-02T00:01:30.859Z,20.30
2023-03-02T00:01:41.831Z,19.60
2023-03-02T00:01:52.610Z,20.10
2023-03-02T00:02:03.652Z,19.50
2023-03-02T00:02:14.653Z,19.80
2023-03-02T00:02:25.492Z,19.90
2023-03-02T00:02:36.058Z,20.40
2023-03-02T00:02:47.081Z,20.10
2023-03-02T00:02:57.960Z,19.70
2023-03-02T00:03:08.488Z,19.50
2023-03-02T00:03:19.524Z,19.60
2023-03-02T00:03:30.301Z,20.20
2023-03-02T00:03:41.362Z,20.90
2023-03-02T00:03:52.403Z,20.90
2023-03-02T00:04:03.255Z,20.00
2023-03-02T00:04:13.779Z,19.30
2023-03-02T00:04:24.748Z,19.40
2023-03-02T00:04:35.524Z,19.30
2023-03-02T00:04:46.589Z,19.90
2023-03-02T00:04:57.562Z,19.90
2023-03-02T00:05:08.334Z,20.20
2023-03-02T00:05:19.385Z,19.80
2023-03-02T00:05:30.426Z,19.50
2023-03-02T00:05:41.178Z,19.50
2023-03-02T00:05:52.247Z,19.70
2023-03-02T00:06:03.198Z,20.20
2023-03-02T00:06:14.175Z,20.10
2023-03-02T00:06:25.238Z,19.40
2023-03-02T00:06:36.199Z,19.30
2023-03-02T00:06:46.968Z,19.20
2023-03-02T00:06:58.117Z,19.70
2023-03-02T00:07:09.046Z,19.30
2023-03-02T00:07:19.830Z,19.40
2023-03-02T00:07:30.875Z,19.30
2023-03-02T00:07:41.880Z,19.40
2023-03-02T00:07:52.692Z,19.80
2023-03-02T00:08:03.702Z,19.70
2023-03-02T00:08:14.679Z,19.50
2023-03-02T00:08:25.448Z,19.50
2023-03-02T00:08:36.495Z,19.90
2023-03-02T00:08:47.495Z,20.30
2023-03-02T00:08:58.249Z,19.90
2023-03-02T00:09:09.294Z,19.80
2023-03-02T00:09:20.269Z,19.90
2023-03-02T00:09:31.047Z,20.00
2023-03-02T00:09:42.099Z,20.30
2023-03-02T00:09:53.073Z,20.30
2023-03-02T00:10:03.840Z,20.20
2023-03-02T00:10:14.912Z,19.50
2023-03-02T00:10:25.877Z,19.40
2023-03-02T00:10:36.640Z,19.50
2023-03-02T00:10:47.708Z,19.90
2023-03-02T00:10:58.658Z,19.40
2023-03-02T00:11:09.420Z,19.60
2023-03-02T00:11:20.498Z,19.30
2023-03-02T00:11:31.505Z,19.40
2023-03-02T00:11:42.246Z,19.50
2023-03-02T00:11:53.296Z,19.80
2023-03-02T00:12:04.281Z,19.80
2023-03-02T00:12:15.043Z,20.20
2023-03-02T00:12:26.103Z,20.50
2023-03-02T00:12:37.063Z,20.20
2023-03-02T00:12:47.836Z,20.40
2023-03-02T00:12:58.875Z,19.30
2023-03-02T00:13:09.837Z,19.60
2023-03-02T00:13:20.605Z,19.10
2023-03-02T00:13:31.652Z,19.60
2023-03-02T00:13:42.643Z,19.90
2023-03-02T00:13:53.382Z,19.90
2023-03-02T00:14:04.449Z,19.50
2023-03-02T00:14:15.431Z,19.60
2023-03-02T00:14:26.179Z,20.20
2023-03-02T00:14:37.251Z,20.20
2023-03-02T00:14:48.261Z,20.20
2023-03-02T00:14:59.061Z,20.20
2023-03-02T00:15:10.098Z,19.70
2023-03-02T00:15:21.128Z,19.70
2023-03-02T00:15:31.952Z,19.40
2023-03-02T00:15:42.998Z,19.90
2023-03-02T00:15:53.957Z,20.50
2023-03-02T00:16:04.751Z,19.90
2023-03-02T00:16:15.848Z,19.60
2023-03-02T00:16:26.834Z,19.60
2023-03-02T00:16:37.603Z,20.40
2023-03-02T00:16:48.662Z,20.20
2023-03-02T00:16:59.662Z,20.10
2023-03-02T00:17:10.430Z,20.20
2023-03-02T00:17:21.445Z,20.70
2023-03-02T00:17:32.407Z,20.50
2023-03-02T00:17:43.199Z,20.00
2023-03-02T00:17:54.224Z,19.90
2023-03-02T00:18:05.213Z,19.50
2023-03-02T00:18:15.968Z,19.50
2023-03-02T00:18:27.020Z,19.40
2023-03-02T00:18:38.001Z,19.60
2023-03-02T00:18:48.772Z,19.90
2023-03-02T00:18:59.815Z,20.10
2023-03-02T00:19:10.780Z,20.00
2023-03-02T00:19:21.619Z,20.10
2023-03-02T00:19:32.612Z,19.90
2023-03-02T00:19:43.578Z,20.20
2023-03-02T00:19:54.369Z,20.10
2023-03-02T00:20:05.413Z,20.00
2023-03-02T00:20:16.390Z,20.20
2023-03-02T00:20:27.159Z,19.90
2023-03-02T00:20:38.204Z,19.70
2023-03-02T00:20:49.201Z,19.40
2023-03-02T00:20:59.949Z,19.30
2023-03-02T00:21:10.993Z,19.80
2023-03-02T00:21:21.960Z,19.50
2023-03-02T00:21:32.738Z,20.10
2023-03-02T00:21:43.788Z,20.10
2023-03-02T00:21:54.759Z,19.80
2023-03-02T00:22:05.587Z,19.30
2023-03-02T00:22:16.595Z,18.90
2023-03-02T00:22:27.574Z,19.30
2023-03-02T00:22:38.336Z,19.70
2023-03-02T00:22:49.399Z,20.00
2023-03-02T00:23:00.375Z,20.00
2023-03-02T00:23:11.129Z,20.40
2023-03-02T00:23:22.224Z,19.60
2023-03-02T00:23:33.167Z,19.60
2023-03-02T00:23:43.956Z,19.40
2023-03-02T00:23:54.994Z,19.80
2023-03-02T00:24:06.007Z,20.10
2023-03-02T00:24:16.744Z,20.00
2023-03-02T00:24:27.829Z,19.40
2023-03-02T00:24:38.806Z,19.60
2023-03-02T00:24:49.579Z,19.20
2023-03-02T00:25:00.678Z,19.10
2023-03-02T00:25:11.639Z,18.50
2023-03-02T00:25:22.403Z,18.80
2023-03-02T00:25:33.459Z,19.00
2023-03-02T00:25:44.432Z,19.50
2023-03-02T00:25:55.190Z,20.30
2023-03-02T00:26:06.280Z,21.10
2023-03-02T00:26:17.214Z,21.00
2023-03-02T00:26:27.997Z,21.00
2023-03-02T00:26:39.096Z,20.30
2023-03-02T00:26:50.068Z,20.30
2023-03-02T00:27:00.868Z,20.40
2023-03-02T00:27:11.913Z,20.40
2023-03-02T00:27:22.905Z,20.10
2023-03-02T00:27:33.673Z,19.30
2023-03-02T00:27:44.747Z,19.80
2023-03-02T00:27:55.679Z,20.40
2023-03-02T00:28:06.473Z,21.00
2023-03-02T00:28:17.500Z,20.70
2023-03-02T00:28:28.470Z,20.30
2023-03-02T00:28:39.276Z,20.20
2023-03-02T00:28:50.333Z,20.10
2023-03-02T00:29:01.307Z,20.00
2023-03-02T00:29:12.077Z,19.40
2023-03-02T00:29:23.131Z,19.50
2023-03-02T00:29:34.113Z,19.70
2023-03-02T00:29:45.058Z,20.00
2023-03-02T00:29:56.110Z,19.60
2023-03-02T00:30:07.145Z,19.80
2023-03-02T00:30:17.878Z,20.00
2023-03-02T00:30:28.922Z,20.20
2023-03-02T00:30:39.921Z,20.00
2023-03-02T00:30:50.712Z,19.60
2023-03-02T00:31:01.804Z,19.50
2023-03-02T00:31:12.791Z,20.00
2023-03-02T00:31:23.607Z,20.20
2023-03-02T00:31:34.164Z,20.00
2023-03-02T00:31:45.193Z,19.80
2023-03-02T00:31:56.121Z,20.10
2023-03-02T00:32:06.730Z,20.20
2023-03-02T00:32:17.765Z,19.90
2023-03-02T00:32:28.595Z,19.50
2023-03-02T00:32:39.051Z,19.50
2023-03-02T00:32:50.032Z,19.60
2023-03-02T00:33:00.796Z,20.10
2023-03-02T00:33:11.849Z,20.00
2023-03-02T00:33:22.809Z,20.40
2023-03-02T00:33:33.605Z,20.30
2023-03-02T00:33:44.648Z,20.30
2023-03-02T00:33:55.626Z,19.80
2023-03-02T00:34:06.391Z,20.20
2023-03-02T00:34:17.436Z,19.90
2023-03-02T00:34:28.401Z,20.00
2023-03-02T00:34:39.165Z,19.90
2023-03-02T00:34:50.222Z,19.90
2023-03-02T00:35:01.181Z,19.50
2023-03-02T00:35:11.996Z,19.90
2023-03-02T00:35:22.537Z,19.80
2023-03-02T00:35:33.478Z,20.10
2023-03-02T00:35:44.380Z,20.10
2023-03-02T00:35:54.898Z,19.60
2023-03-02T00:36:05.858Z,19.70
2023-03-02T00:36:16.632Z,20.30
2023-03-02T00:36:27.673Z,20.40
2023-03-02T00:36:38.679Z,20.10
2023-03-02T00:36:49.427Z,19.80
2023-03-02T00:37:00.497Z,19.90
2023-03-02T00:37:11.448Z,20.30
2023-03-02T00:37:22.215Z,20.40
2023-03-02T00:37:33.289Z,20.30
2023-03-02T00:37:44.266Z,20.40
2023-03-02T00:37:55.033Z,21.00
2023-03-02T00:38:06.092Z,20.70
2023-03-02T00:38:17.039Z,20.50
2023-03-02T00:38:27.839Z,20.00
2023-03-02T00:38:38.365Z,20.20
2023-03-02T00:38:49.342Z,20.50
2023-03-02T00:39:00.126Z,20.40
2023-03-02T00:39:11.168Z,20.20
2023-03-02T00:39:22.130Z,20.00
2023-03-02T00:39:32.887Z,20.40
2023-03-02T00:39:43.922Z,20.60
2023-03-02T00:39:54.889Z,21.10
2023-03-02T00:40:05.692Z,20.70
2023-03-02T00:40:16.758Z,20.10
2023-03-02T00:40:27.732Z,19.70
2023-03-02T00:40:38.492Z,19.90
2023-03-02T00:40:49.556Z,20.00
2023-03-02T00:41:00.515Z,20.10
2023-03-02T00:41:11.288Z,19.50
2023-03-02T00:41:22.354Z,19.90
2023-03-02T00:41:33.354Z,20.30
2023-03-02T00:41:44.116Z,20.40
2023-03-02T00:41:55.170Z,20.30
2023-03-02T00:42:06.134Z,20.20
2023-03-02T00:42:16.958Z,20.20
2023-03-02T00:42:27.982Z,20.50
2023-03-02T00:42:38.948Z,20.00
2023-03-02T00:42:49.849Z,20.40
2023-03-02T00:43:00.336Z,20.30
2023-03-02T00:43:11.306Z,20.10
2023-03-02T00:43:22.090Z,20.30
2023-03-02T00:43:33.137Z,20.30
2023-03-02T00:43:44.122Z,20.00
2023-03-02T00:43:54.884Z,19.70
2023-03-02T00:44:05.929Z,19.80
2023-03-02T00:44:16.916Z,19.90
2023-03-02T00:44:27.657Z,20.50
2023-03-02T00:44:38.712Z,20.30
2023-03-02T00:44:49.673Z,19.90
2023-03-02T00:45:00.458Z,20.30
2023-03-02T00:45:11.484Z,20.80
2023-03-02T00:45:22.488Z,20.70
2023-03-02T00:45:33.266Z,20.40
2023-03-02T00:45:44.335Z,20.50
2023-03-02T00:45:55.317Z,20.60
2023-03-02T00:46:06.104Z,20.40
2023-03-02T00:46:17.222Z,20.40
2023-03-02T00:46:28.183Z,20.90
2023-03-02T00:46:38.955Z,20.90
2023-03-02T00:46:50.072Z,20.80
2023-03-02T00:47:00.662Z,20.30
2023-03-02T00:47:11.451Z,20.60
2023-03-02T00:47:22.541Z,20.60
2023-03-02T00:47:33.495Z,20.60
2023-03-02T00:47:44.270Z,20.10
2023-03-02T00:47:55.319Z,20.20
2023-03-02T00:48:06.377Z,20.40
2023-03-02T00:48:17.104Z,20.50
2023-03-02T00:48:28.152Z,20.10
2023-03-02T00:48:39.139Z,20.30
2023-03-02T00:48:49.898Z,20.40
2023-03-02T00:49:00.954Z,20.90
2023-03-02T00:49:11.942Z,21.20
2023-03-02T00:49:22.700Z,21.70
2023-03-02T00:49:33.751Z,21.50
2023-03-02T00:49:44.728Z,21.00
2023-03-02T00:49:55.509Z,20.50
2023-03-02T00:50:06.556Z,20.20
2023-03-02T00:50:17.524Z,20.20
2023-03-02T00:50:28.323Z,20.10
2023-03-02T00:50:39.351Z,20.20
2023-03-02T00:50:50.313Z,20.00
2023-03-02T00:51:01.097Z,20.90
2023-03-02T00:51:12.167Z,21.50
2023-03-02T00:51:23.115Z,21.80
2023-03-02T00:51:33.900Z,20.80
2023-03-02T00:51:44.932Z,20.80
2023-03-02T00:51:55.894Z,20.70
2023-03-02T00:52:06.697Z,21.00
2023-03-02T00:52:17.769Z,21.20
2023-03-02T00:52:28.706Z,20.70
2023-03-02T00:52:39.504Z,20.40
2023-03-02T00:52:50.538Z,20.50
2023-03-02T00:53:01.538Z,21.10
2023-03-02T00:53:12.278Z,21.40
2023-03-02T00:53:23.335Z,21.30
2023-03-02T00:53:34.343Z,21.50
2023-03-02T00:53:45.087Z,20.90
2023-03-02T00:53:56.162Z,20.90
2023-03-02T00:54:07.114Z,20.60
2023-03-02T00:54:18.090Z,20.70
2023-03-02T00:54:29.152Z,20.90
2023-03-02T00:54:40.109Z,20.80
2023-03-02T00:54:50.884Z,20.50
2023-03-02T00:55:01.933Z,20.40
2023-03-02T00:55:12.907Z,21.00
2023-03-02T00:55:23.680Z,21.10
2023-03-02T00:55:34.763Z,20.90
2023-03-02T00:55:45.761Z,20.60
2023-03-02T00:55:56.570Z,20.90
2023-03-02T00:56:07.632Z,20.90
2023-03-02T00:56:18.632Z,20.40
2023-03-02T00:56:29.400Z,20.00
2023-03-02T00:56:40.449Z,20.00
2023-03-02T00:56:51.425Z,20.80
2023-03-02T00:57:02.220Z,21.20
2023-03-02T00:57:13.277Z,21.50
2023-03-02T00:57:24.246Z,20.90
2023-03-02T00:57:35.021Z,20.90
2023-03-02T00:57:46.059Z,20.70
2023-03-02T00:57:57.037Z,21.00
2023-03-02T00:58:07.799Z,21.10
2023-03-02T00:58:18.897Z,21.30
2023-03-02T00:58:29.869Z,20.60
2023-03-02T00:58:40.629Z,21.20
2023-03-02T00:58:51.686Z,20.60
2023-03-02T00:59:02.647Z,20.60
2023-03-02T00:59:13.410Z,21.10
2023-03-02T00:59:24.480Z,21.20
2023-03-02T00:59:35.430Z,21.00
2023-03-02T00:59:46.216Z,21.00
2023-03-02T00:59:57.269Z,20.70
2023-03-02T01:00:08.267Z,20.20
2023-03-02T01:00:19.025Z,20.30
2023-03-02T01:00:30.091Z,20.60
2023-03-02T01:00:41.063Z,20.90
2023-03-02T01:00:51.832Z,20.90
2023-03-02T01:01:02.886Z,21.00
2023-03-02T01:01:13.922Z,21.20
2023-03-02T01:01:24.669Z,20.70
2023-03-02T01:01:35.728Z,20.30
2023-03-02T01:01:46.712Z,20.80
2023-03-02T01:01:57.558Z,20.90
2023-03-02T01:02:08.623Z,20.40
2023-03-02T01:02:19.645Z,20.60
2023-03-02T01:02:30.519Z,20.90
2023-03-02T01:02:41.173Z,21.70
2023-03-02T01:02:52.263Z,21.80
2023-03-02T01:03:03.106Z,21.80
2023-03-02T01:03:14.246Z,20.90
2023-03-02T01:03:25.359Z,20.60
2023-03-02T01:03:36.108Z,20.90
2023-03-02T01:03:47.160Z,21.30
2023-03-02T01:03:58.124Z,21.50
2023-03-02T01:04:08.900Z,21.50
2023-03-02T01:04:19.979Z,21.60
2023-03-02T01:04:30.953Z,21.40
2023-03-02T01:04:41.714Z,21.20
2023-03-02T01:04:52.772Z,20.90
2023-03-02T01:05:03.742Z,20.40
2023-03-02T01:05:14.536Z,20.70
2023-03-02T01:05:25.569Z,20.60
2023-03-02T01:05:36.566Z,20.90
2023-03-02T01:05:47.319Z,21.50
2023-03-02T01:05:58.360Z,21.30
2023-03-02T01:06:09.338Z,21.20
2023-03-02T01:06:20.114Z,20.70
2023-03-02T01:06:31.555Z,21.10
2023-03-02T01:06:42.203Z,21.00
2023-03-02T01:06:52.960Z,20.50
2023-03-02T01:07:04.035Z,20.90
2023-03-02T01:07:15.024Z,21.00
2023-03-02T01:07:25.758Z,21.20
2023-03-02T01:07:36.813Z,20.80
2023-03-02T01:07:47.783Z,20.30
2023-03-02T01:07:58.569Z,20.70
2023-03-02T01:08:09.624Z,20.70
2023-03-02T01:08:20.580Z,21.20
2023-03-02T01:08:31.337Z,20.80
2023-03-02T01:08:42.398Z,21.30
2023-03-02T01:08:53.380Z,21.20
2023-03-02T01:09:04.145Z,21.30
2023-03-02T01:09:15.189Z,20.90
2023-03-02T01:09:26.165Z,21.10
2023-03-02T01:09:36.935Z,21.10
2023-03-02T01:09:47.986Z,21.20
2023-03-02T01:09:58.995Z,21.10
2023-03-02T01:10:09.935Z,21.20
2023-03-02T01:10:20.546Z,21.00
2023-03-02T01:10:31.555Z,21.20
2023-03-02T01:10:42.284Z,21.20
2023-03-02T01:10:54.374Z,20.40
2023-03-02T01:11:04.312Z,20.70
2023-03-02T01:11:15.080Z,20.40
2023-03-02T01:11:26.134Z,20.90
2023-03-02T01:11:37.122Z,20.80
2023-03-02T01:11:47.918Z,20.70
2023-03-02T01:11:58.971Z,20.90
2023-03-02T01:12:09.930Z,20.70
2023-03-02T01:12:20.690Z,21.40
2023-03-02T01:12:31.751Z,20.90
2023-03-02T01:12:42.718Z,21.50
2023-03-02T01:12:53.487Z,21.30
2023-03-02T01:13:04.536Z,21.60
2023-03-02T01:13:15.521Z,21.50
2023-03-02T01:13:26.284Z,21.30
2023-03-02T01:13:37.344Z,21.30
2023-03-02T01:13:48.317Z,21.60
2023-03-02T01:13:59.086Z,21.60
2023-03-02T01:14:10.136Z,21.60
2023-03-02T01:14:21.137Z,21.20
2023-03-02T01:14:31.873Z,20.90
2023-03-02T01:14:42.921Z,21.30
2023-03-02T01:14:53.890Z,21.40
2023-03-02T01:15:04.659Z,21.00
2023-03-02T01:15:15.706Z,20.90
2023-03-02T01:15:26.677Z,21.00
2023-03-02T01:15:37.462Z,20.70
2023-03-02T01:15:48.532Z,21.10
2023-03-02T01:15:59.531Z,21.00
2023-03-02T01:16:10.329Z,21.10
2023-03-02T01:16:20.878Z,20.80
2023-03-02T01:16:32.141Z,21.00
2023-03-02T01:16:42.483Z,21.30
2023-03-02T01:16:53.575Z,21.50
2023-03-02T01:17:04.537Z,22.10
2023-03-02T01:17:15.304Z,22.00
2023-03-02T01:17:26.357Z,21.20
2023-03-02T01:17:37.314Z,21.10
2023-03-02T01:17:48.086Z,20.80
2023-03-02T01:17:59.194Z,21.00
2023-03-02T01:18:12.091Z,21.40
2023-03-02T01:18:21.149Z,21.80
2023-03-02T01:18:32.214Z,22.00
2023-03-02T01:18:43.170Z,21.80
2023-03-02T01:18:53.964Z,21.90
2023-03-02T01:19:05.008Z,22.20
2023-03-02T01:19:15.981Z,22.20
2023-03-02T01:19:26.740Z,21.90
2023-03-02T01:19:37.823Z,21.50
2023-03-02T01:19:48.782Z,21.20
2023-03-02T01:19:59.547Z,21.70
2023-03-02T01:20:10.588Z,21.90
2023-03-02T01:20:21.573Z,22.10
2023-03-02T01:20:32.346Z,21.80
2023-03-02T01:20:43.392Z,21.50
2023-03-02T01:20:54.405Z,21.30
2023-03-02T01:21:05.187Z,21.10
2023-03-02T01:21:16.251Z,20.90
2023-03-02T01:21:27.209Z,21.00
2023-03-02T01:21:37.984Z,21.50
2023-03-02T01:21:49.044Z,21.60
2023-03-02T01:22:00.042Z,21.30
2023-03-02T01:22:10.787Z,21.70
2023-03-02T01:22:21.844Z,21.80
2023-03-02T01:22:32.817Z,22.00
2023-03-02T01:22:43.585Z,21.60
2023-03-02T01:22:54.620Z,21.90
2023-03-02T01:23:05.594Z,21.80
2023-03-02T01:23:16.379Z,21.50
2023-03-02T01:23:27.454Z,21.40
2023-03-02T01:23:38.397Z,21.60
2023-03-02T01:23:49.145Z,21.80
2023-03-02T01:24:00.225Z,21.90
2023-03-02T01:24:11.211Z,21.70
2023-03-02T01:24:21.976Z,22.30
2023-03-02T01:24:33.046Z,22.10
2023-03-02T01:24:43.986Z,21.80
2023-03-02T01:24:54.785Z,21.20
2023-03-02T01:25:05.811Z,21.10
2023-03-02T01:25:16.791Z,21.30
2023-03-02T01:25:27.559Z,21.30
2023-03-02T01:25:38.614Z,22.10
2023-03-02T01:25:49.635Z,22.20
2023-03-02T01:26:00.371Z,22.00
2023-03-02T01:26:11.403Z,21.60
2023-03-02T01:26:22.387Z,21.40
2023-03-02T01:26:33.542Z,21.00
2023-03-02T01:26:44.151Z,21.40
2023-03-02T01:26:55.241Z,21.70
2023-03-02T01:27:05.949Z,22.10
2023-03-02T01:27:16.999Z,21.90
2023-03-02T01:27:27.980Z,22.00
2023-03-02T01:27:38.735Z,21.70
2023-03-02T01:27:49.788Z,21.80
2023-03-02T01:28:00.753Z,21.70
2023-03-02T01:28:11.522Z,21.50
2023-03-02T01:28:22.568Z,20.90
2023-03-02T01:28:33.557Z,21.40
2023-03-02T01:28:44.358Z,21.50
2023-03-02T01:28:55.408Z,22.00
2023-03-02T01:29:06.380Z,22.20
2023-03-02T01:29:17.153Z,21.80
2023-03-02T01:29:28.208Z,21.10
2023-03-02T01:29:39.180Z,20.90
2023-03-02T01:29:49.945Z,21.70
2023-03-02T01:30:01.040Z,22.50
2023-03-02T01:30:12.021Z,22.80
2023-03-02T01:30:22.797Z,22.30
2023-03-02T01:30:33.841Z,22.40
2023-03-02T01:30:44.803Z,22.20
2023-03-02T01:30:55.594Z,22.50
2023-03-02T01:31:06.759Z,22.30
2023-03-02T01:31:17.754Z,22.60
2023-03-02T01:31:28.548Z,21.70
2023-03-02T01:31:39.089Z,21.80
2023-03-02T01:31:50.174Z,22.00
2023-03-02T01:32:01.145Z,22.20
2023-03-02T01:32:11.809Z,22.30
2023-03-02T01:32:22.818Z,22.10
2023-03-02T01:32:33.625Z,21.60
2023-03-02T01:32:44.091Z,21.40
2023-03-02T01:32:55.066Z,21.10
2023-03-02T01:33:05.847Z,21.50
2023-03-02T01:33:16.963Z,21.70
2023-03-02T01:33:27.896Z,22.30
2023-03-02T01:33:38.651Z,22.50
2023-03-02T01:33:49.713Z,22.60
2023-03-02T01:34:00.720Z,22.40
2023-03-02T01:34:11.448Z,22.60
2023-03-02T01:34:22.498Z,22.50
2023-03-02T01:34:33.478Z,22.00
2023-03-02T01:34:44.243Z,22.00
2023-03-02T01:34:55.297Z,21.20
2023-03-02T01:35:06.268Z,21.70
2023-03-02T01:35:17.063Z,21.50
2023-03-02T01:35:28.203Z,22.10
2023-03-02T01:35:39.156Z,22.20
2023-03-02T01:35:49.932Z,22.10
2023-03-02T01:36:01.038Z,21.80
2023-03-02T01:36:11.493Z,22.60
2023-03-02T01:36:22.267Z,22.10
2023-03-02T01:36:33.732Z,22.30
2023-03-02T01:36:44.340Z,22.20
2023-03-02T01:36:55.139Z,22.30
2023-03-02T01:37:06.148Z,21.90
2023-03-02T01:37:17.147Z,21.70
2023-03-02T01:37:27.886Z,22.40
2023-03-02T01:37:38.942Z,22.60
2023-03-02T01:37:49.924Z,22.40
2023-03-02T01:38:00.678Z,22.10
2023-03-02T01:38:11.923Z,22.20
2023-03-02T01:38:22.447Z,22.00
2023-03-02T01:38:33.244Z,21.90
2023-03-02T01:38:43.774Z,22.20
2023-03-02T01:38:54.808Z,22.60
2023-03-02T01:39:05.543Z,22.50
2023-03-02T01:39:16.593Z,22.70
2023-03-02T01:39:27.558Z,22.40
2023-03-02T01:39:38.350Z,22.50
2023-03-02T01:39:49.422Z,22.50
2023-03-02T01:40:00.371Z,22.60
2023-03-02T01:40:11.136Z,22.40
2023-03-02T01:40:22.186Z,22.00
2023-03-02T01:40:33.154Z,21.50
2023-03-02T01:40:43.927Z,21.20
2023-03-02T01:40:54.987Z,21.20
2023-03-02T01:41:05.935Z,21.40
2023-03-02T01:41:16.712Z,22.00
2023-03-02T01:41:27.760Z,22.50
2023-03-02T01:41:38.735Z,23.00
2023-03-02T01:41:49.537Z,22.60
2023-03-02T01:42:00.594Z,22.40
2023-03-02T01:42:11.547Z,22.10
2023-03-02T01:42:22.317Z,21.80
2023-03-02T01:42:33.369Z,21.80
2023-03-02T01:42:44.337Z,21.80
2023-03-02T01:42:55.106Z,21.60
2023-03-02T01:43:06.149Z,21.80
2023-03-02T01:43:17.149Z,22.40
2023-03-02T01:43:27.932Z,22.40
2023-03-02T01:43:38.977Z,22.50
2023-03-02T01:43:49.933Z,22.00
2023-03-02T01:44:00.697Z,21.70
2023-03-02T01:44:11.754Z,21.80
2023-03-02T01:44:22.736Z,22.10
2023-03-02T01:44:33.489Z,22.60
2023-03-02T01:44:44.559Z,22.30
2023-03-02T01:44:55.581Z,21.60
2023-03-02T01:45:06.337Z,21.40
2023-03-02T01:45:17.426Z,21.60
2023-03-02T01:45:28.383Z,22.40
2023-03-02T01:45:39.147Z,22.20
2023-03-02T01:45:50.268Z,21.70
2023-03-02T01:46:01.282Z,22.00
2023-03-02T01:46:12.056Z,22.20
2023-03-02T01:46:23.068Z,22.50
2023-03-02T01:46:34.380Z,22.30
2023-03-02T01:46:45.177Z,22.10
2023-03-02T01:46:56.215Z,21.80
2023-03-02T01:47:07.206Z,22.80
2023-03-02T01:47:17.963Z,23.10
2023-03-02T01:47:29.008Z,22.90
2023-03-02T01:47:39.990Z,22.30
2023-03-02T01:47:50.817Z,21.70
2023-03-02T01:48:01.806Z,21.60
2023-03-02T01:48:12.811Z,21.30
2023-03-02T01:48:23.596Z,22.10
2023-03-02T01:48:34.655Z,22.00
2023-03-02T01:48:45.606Z,22.10
2023-03-02T01:48:56.371Z,21.80
2023-03-02T01:49:07.420Z,21.60
2023-03-02T01:49:18.398Z,22.20
2023-03-02T01:49:29.161Z,22.50
2023-03-02T01:49:40.198Z,22.40
2023-03-02T01:49:51.165Z,22.00
2023-03-02T01:50:01.938Z,22.30
2023-03-02T01:50:13.001Z,22.50
2023-03-02T01:50:23.947Z,22.40
2023-03-02T01:50:34.738Z,22.20
2023-03-02T01:50:45.772Z,21.90
2023-03-02T01:50:56.741Z,22.70
2023-03-02T01:51:07.563Z,22.50
2023-03-02T01:51:18.603Z,22.40
2023-03-02T01:51:29.648Z,22.00
2023-03-02T01:51:40.420Z,22.30
2023-03-02T01:51:51.476Z,22.60
2023-03-02T01:52:02.450Z,22.60
2023-03-02T01:52:13.458Z,22.80
2023-03-02T01:52:24.501Z,22.50
2023-03-02T01:52:35.501Z,22.40
2023-03-02T01:52:46.257Z,22.40
2023-03-02T01:52:57.310Z,22.60
2023-03-02T01:53:08.283Z,22.70
2023-03-02T01:53:19.055Z,22.70
2023-03-02T01:53:30.116Z,22.60
2023-03-02T01:53:41.104Z,22.70
2023-03-02T01:53:52.458Z,22.60
2023-03-02T01:54:02.417Z,23.50
2023-03-02T01:54:13.401Z,23.30
2023-03-02T01:54:24.166Z,23.50
2023-03-02T01:54:35.201Z,23.00
2023-03-02T01:54:46.231Z,22.90
2023-03-02T01:54:56.993Z,22.10
2023-03-02T01:55:08.023Z,21.90
2023-03-02T01:55:19.016Z,21.60
2023-03-02T01:55:29.747Z,22.20
2023-03-02T01:55:40.810Z,22.70
2023-03-02T01:55:51.805Z,23.40
2023-03-02T01:56:02.562Z,23.20
2023-03-02T01:56:13.613Z,22.20
2023-03-02T01:56:24.580Z,21.80
2023-03-02T01:56:35.405Z,22.60
2023-03-02T01:56:46.450Z,23.40
2023-03-02T01:56:57.439Z,22.90
2023-03-02T01:57:08.229Z,22.80
2023-03-02T01:57:19.275Z,22.50
2023-03-02T01:57:30.242Z,22.70
2023-03-02T01:57:41.022Z,22.10
2023-03-02T01:57:52.087Z,22.70
2023-03-02T01:58:03.050Z,22.20
2023-03-02T01:58:13.817Z,22.50
2023-03-02T01:58:24.860Z,22.00
2023-03-02T01:58:35.840Z,22.50
2023-03-02T01:58:46.595Z,23.20
2023-03-02T01:58:57.674Z,23.00
2023-03-02T01:59:08.640Z,22.90
2023-03-02T01:59:19.397Z,22.20
2023-03-02T01:59:30.452Z,22.00
2023-03-02T01:59:41.416Z,22.80
2023-03-02T01:59:52.186Z,22.60
2023-03-02T02:00:03.242Z,22.40
2023-03-02T02:00:14.200Z,22.10
2023-03-02T02:00:25.029Z,22.40
2023-03-02T02:00:35.548Z,22.20
2023-03-02T02:00:46.589Z,22.70
2023-03-02T02:00:57.397Z,22.70
2023-03-02T02:01:08.477Z,22.80
2023-03-02T02:01:19.480Z,22.90
2023-03-02T02:01:30.301Z,23.30
2023-03-02T02:01:40.786Z,23.50
2023-03-02T02:01:51.781Z,24.20
2023-03-02T02:02:02.546Z,23.60
2023-03-02T02:02:13.605Z,23.10
2023-03-02T02:02:24.579Z,22.90
2023-03-02T02:02:35.359Z,22.40
2023-03-02T02:02:46.414Z,22.80
2023-03-02T02:02:57.382Z,22.60
2023-03-02T02:03:08.146Z,22.60
2023-03-02T02:03:19.209Z,22.80
2023-03-02T02:03:30.182Z,23.10
2023-03-02T02:03:40.946Z,23.30
2023-03-02T02:03:52.115Z,23.10
2023-03-02T02:04:03.132Z,22.30
2023-03-02T02:04:14.006Z,22.70
2023-03-02T02:04:25.028Z,21.90
2023-03-02T02:04:35.968Z,22.20
2023-03-02T02:04:46.744Z,22.00
2023-03-02T02:04:57.790Z,22.30
2023-03-02T02:05:08.757Z,22.80
2023-03-02T02:05:19.537Z,22.80
2023-03-02T02:05:30.590Z,22.90
2023-03-02T02:05:41.560Z,22.50
2023-03-02T02:05:52.354Z,23.00
2023-03-02T02:06:03.428Z,22.90
2023-03-02T02:06:14.389Z,23.00
2023-03-02T02:06:25.152Z,22.80
2023-03-02T02:06:36.204Z,22.80
2023-03-02T02:06:47.174Z,23.20
2023-03-02T02:06:57.992Z,22.70
2023-03-02T02:07:09.001Z,23.10
2023-03-02T02:07:19.971Z,22.70
2023-03-02T02:07:30.761Z,22.70
2023-03-02T02:07:41.808Z,22.40
2023-03-02T02:07:52.801Z,22.60
2023-03-02T02:08:03.558Z,22.90
2023-03-02T02:08:14.619Z,23.10
2023-03-02T02:08:25.582Z,23.00
2023-03-02T02:08:36.351Z,22.80
2023-03-02T02:08:47.413Z,22.40
2023-03-02T02:08:58.382Z,21.80
2023-03-02T02:09:09.168Z,22.10
2023-03-02T02:09:20.218Z,22.70
2023-03-02T02:09:31.188Z,22.70
2023-03-02T02:09:41.959Z,23.10
2023-03-02T02:09:53.013Z,23.00
2023-03-02T02:10:03.982Z,23.00
2023-03-02T02:10:14.752Z,22.30
2023-03-02T02:10:25.810Z,22.30
2023-03-02T02:10:36.780Z,22.40
2023-03-02T02:10:47.540Z,23.10
2023-03-02T02:10:58.616Z,23.70
2023-03-02T02:11:09.580Z,23.50
2023-03-02T02:11:20.370Z,22.60
2023-03-02T02:11:31.422Z,22.50
2023-03-02T02:11:42.385Z,22.90
2023-03-02T02:11:53.187Z,22.50
2023-03-02T02:12:04.206Z,22.70
2023-03-02T02:12:15.191Z,22.60
2023-03-02T02:12:25.957Z,22.50
2023-03-02T02:12:37.011Z,22.40
2023-03-02T02:12:47.982Z,22.60
2023-03-02T02:12:58.743Z,22.40
2023-03-02T02:13:09.804Z,22.80
2023-03-02T02:13:20.771Z,22.30
2023-03-02T02:13:31.547Z,22.30
2023-03-02T02:13:42.591Z,22.40
2023-03-02T02:13:53.555Z,22.20
2023-03-02T02:14:04.352Z,22.10
2023-03-02T02:14:15.369Z,22.10
2023-03-02T02:14:26.345Z,22.50
2023-03-02T02:14:37.096Z,22.70
2023-03-02T02:14:48.152Z,22.80
2023-03-02T02:14:59.192Z,22.80
2023-03-02T02:15:09.933Z,22.90
2023-03-02T02:15:20.990Z,23.10
2023-03-02T02:15:31.952Z,23.50
2023-03-02T02:15:42.719Z,23.30
2023-03-02T02:15:53.773Z,23.00
2023-03-02T02:16:04.881Z,22.90
2023-03-02T02:16:15.662Z,22.60
2023-03-02T02:16:26.733Z,22.80
2023-03-02T02:16:37.708Z,23.10
2023-03-02T02:16:48.510Z,23.20
2023-03-02T02:16:59.044Z,23.60
2023-03-02T02:17:10.075Z,23.30
2023-03-02T02:17:20.834Z,22.60
2023-03-02T02:17:31.898Z,22.40
2023-03-02T02:17:42.884Z,22.70
2023-03-02T02:17:53.657Z,23.00
2023-03-02T02:18:04.694Z,22.80
2023-03-02T02:18:15.682Z,22.60
2023-03-02T02:18:26.450Z,22.90
2023-03-02T02:18:37.495Z,23.20
2023-03-02T02:18:48.457Z,22.90
2023-03-02T02:18:59.237Z,22.60
2023-03-02T02:19:10.291Z,22.50
2023-03-02T02:19:21.256Z,22.80
2023-03-02T02:19:32.025Z,22.90
2023-03-02T02:19:43.079Z,22.90
2023-03-02T02:19:54.034Z,22.20
2023-03-02T02:20:04.801Z,22.20
2023-03-02T02:20:15.865Z,22.70
2023-03-02T02:20:26.816Z,23.10
2023-03-02T02:20:37.648Z,22.90